Latest Coastal Weather Observations for Albion Park

IDN60701

Issued at 1:51 am EST Thursday 30 July 2015 (issued every 10 minutes, with the page automatically refreshed every 10 minutes)

About coastal observations | Map of coastal stations | Coastal observations for NSW | Marine services | Other Formats
Station Details ID: 068241 Name: WOLLONGONG AIRPORT Lat: -34.56 Lon: 150.79 Height: 8.0 m
Data from the previous 72 hours. | See also: Recent months at Albion Park
Date/Time
EST
Temp

°C
Wind Pressure Rain
since 9am
mm
Weather Cloud Vis
km
Sea
Height
m
Swell
Dir
 
Speed
knots
Gust
knots
hPa Trend Height
m
Period
s
Dir
30/01:30am 7.6 N 2 5 1027.7 - 0.0 - - 10 - - - -
30/01:00am 7.1 WSW 5 7 1028.6 - 0.0 - - 10 - - - -
30/12:30am 7.1 WSW 4 6 1028.8 - 0.0 - - 10 - - - -
 
Date/Time
EST
Temp

°C
Wind Pressure Rain
since 9am
mm
Weather Cloud Vis
km
Sea
Height
m
Swell
Dir
 
Speed
knots
Gust
knots
hPa Trend Height
m
Period
s
Dir
29/11:30pm 6.6 WSW 2 4 1029.2 - 0.0 - - 10 - - - -
29/11:00pm 6.4 WSW 2 4 1029.6 - 0.0 - - 10 - - - -
29/10:30pm 5.9 WSW 4 5 1029.9 - 0.0 - - 10 - - - -
29/10:00pm 6.4 CALM 0 0 1030.0 - 0.0 - - 10 - - - -
29/09:30pm 6.7 WSW 3 5 1030.6 - 0.0 - - 10 - - - -
29/09:00pm 7.1 W 7 8 1030.6 - 0.0 - - 10 - - - -
29/08:30pm 6.0 W 6 7 1030.5 - 0.0 - - 10 - - - -
29/08:00pm 6.9 WNW 5 5 1030.3 - 0.0 - - 10 - - - -
29/07:30pm 6.8 W 6 7 1030.6 - 0.0 - - 10 - - - -
29/07:00pm 7.7 W 4 6 1030.7 - 0.0 - - 10 - - - -
29/06:30pm 8.9 W 5 7 1030.5 - 0.0 - - 10 - - - -
29/06:00pm 9.1 W 4 5 1030.3 - 0.0 - - 10 - - - -
29/05:30pm 11.2 ESE 3 5 1029.9 - 0.0 - - 10 - - - -
29/05:00pm 13.4 E 5 6 1029.8 - 0.0 - - 10 - - - -
29/04:30pm 14.3 NE 5 7 1029.9 - 0.0 - - 10 - - - -
29/04:00pm 14.8 NE 5 7 1029.9 - 0.0 - - 10 - - - -
29/03:30pm 15.1 NE 6 8 1029.9 - 0.0 - - 10 - - - -
29/03:00pm 15.2 NE 8 11 1030.2 - 0.0 - - 10 - - - -
29/02:30pm 16.1 NE 7 9 1030.4 - 0.0 - - 10 - - - -
29/02:00pm 16.2 NNE 6 9 1030.6 - 0.0 - - 10 - - - -
29/01:30pm 16.3 NE 7 9 1031.1 - 0.0 - - 10 - - - -
29/01:00pm 16.2 NE 7 9 1031.5 - 0.0 - - 10 - - - -
29/12:30pm 16.0 NE 8 9 1032.1 - 0.0 - - 10 - - - -
29/12:00pm 15.8 NE 7 9 1032.8 - 0.0 - - 10 - - - -
29/11:30am 15.9 NNE 7 9 1033.4 - 0.0 - - 10 - - - -
29/11:00am 16.1 NE 4 7 1033.9 - 0.0 - - 10 - - - -
29/10:30am 15.1 SW 3 5 1034.4 - 0.0 - - 10 - - - -
29/10:00am 15.4 NW 3 5 1034.7 - 0.0 - - 10 - - - -
29/09:30am 13.9 CALM 0 0 1034.7 - 0.0 - - 10 - - - -
29/09:00am 11.6 WNW 3 5 1034.9 - 0.0 - - 10 - - - -
29/08:30am 9.5 SW 3 4 1034.8 - 0.0 - - 10 - - - -
29/08:00am 6.3 CALM 0 0 1034.7 - 0.0 - - 10 - - - -
29/07:30am 3.9 SW 3 4 1034.4 - 0.0 - - 10 - - - -
29/07:00am 3.7 SW 3 4 1034.2 - 0.0 - - 10 - - - -
29/06:30am 4.1 SW 4 5 1034.0 - 0.0 - - 10 - - - -
29/06:00am 3.8 SW 4 4 1033.7 - 0.0 - - 10 - - - -
29/05:30am 3.8 SW 4 5 1033.4 - 0.0 - - 10 - - - -
29/05:00am 4.5 CALM 0 0 1033.3 - 0.0 - - 10 - - - -
29/04:30am 5.9 CALM 0 0 1033.1 - 0.0 - - 10 - - - -
29/04:00am 6.9 SSW 1 3 1032.9 - 0.0 - Partly cloudy 10 - - - -
29/03:30am 7.3 SW 4 6 1032.8 - 0.0 - Cloudy 10 - - - -
29/03:00am 7.8 W 3 4 1032.9 - 0.0 - Cloudy 10 - - - -
29/02:30am 7.7 WSW 7 8 1033.1 - 0.0 - Partly cloudy 10 - - - -
29/02:00am 6.5 WNW 4 4 1033.3 - 0.0 - Cloudy 10 - - - -
29/01:30am 6.1 W 1 5 1033.4 - 0.0 - Partly cloudy 10 - - - -
29/01:00am 5.7 WNW 4 5 1033.2 - 0.0 - Partly cloudy 10 - - - -
29/12:30am 4.9 SW 3 4 1033.2 - 0.0 - - 10 - - - -
29/12:00am 4.7 WSW 3 6 1033.2 - 0.0 - - 10 - - - -
 
Date/Time
EST
Temp

°C
Wind Pressure Rain
since 9am
mm
Weather Cloud Vis
km
Sea
Height
m
Swell
Dir
 
Speed
knots
Gust
knots
hPa Trend Height
m
Period
s
Dir
28/11:30pm 5.1 WNW 4 4 1033.3 - 0.0 - Partly cloudy 10 - - - -
28/11:00pm 5.1 W 3 5 1033.3 - 0.0 - Partly cloudy 10 - - - -
28/10:30pm 5.4 W 4 6 1033.4 - 0.0 - - 10 - - - -
28/10:00pm 5.3 W 4 5 1033.4 - 0.0 - - 10 - - - -
28/09:30pm 5.5 CALM 0 0 1033.4 - 0.0 - - 10 - - - -
28/09:00pm 6.5 WSW 1 3 1033.3 - 0.0 - - 10 - - - -
28/08:30pm 7.8 W 7 7 1033.1 - 0.0 - Partly cloudy 10 - - - -
28/08:00pm 6.9 WSW 6 8 1033.0 - 0.0 - Partly cloudy 10 - - - -
28/07:30pm 6.6 SW 2 4 1032.9 - 0.0 - Partly cloudy 10 - - - -
28/07:00pm 7.1 WSW 3 4 1032.8 - 0.0 - - 10 - - - -
28/06:30pm 8.2 W 4 6 1032.3 - 0.0 - - 10 - - - -
28/06:00pm 8.8 WNW 5 8 1031.9 - 0.0 - - 10 - - - -
28/05:30pm 10.4 WNW 6 8 1031.6 - 0.0 - - 10 - - - -
28/05:00pm 13.7 SE 3 6 1031.2 - 0.0 - - 10 - - - -
28/04:30pm 14.7 SE 5 8 1031.1 - 0.0 - - 10 - - - -
28/04:00pm 15.0 SE 8 10 1031.0 - 0.0 - - 10 - - - -
28/03:30pm 15.6 SE 9 12 1030.8 - 0.0 - - 10 - - - -
28/03:00pm 15.8 SE 8 11 1030.6 - 0.0 - - 10 - - - -
28/02:30pm 16.8 SSE 10 14 1030.7 - 0.0 - Partly cloudy 10 - - - -
28/02:00pm 16.3 SSW 9 13 1030.6 - 0.0 - - 10 - - - -
28/01:30pm 16.5 SSW 9 13 1030.8 - 0.0 - - 10 - - - -
28/01:00pm 16.1 SW 10 15 1031.0 - 0.0 - - 10 - - - -
28/12:30pm 16.2 SSW 9 15 1031.2 - 0.0 - - 10 - - - -
28/12:00pm 15.8 SW 11 14 1031.7 - 0.0 - - 10 - - - -
28/11:30am 15.5 WSW 13 17 1032.0 - 0.0 - - 10 - - - -
28/11:00am 15.1 WSW 12 16 1032.5 - 0.0 - - 10 - - - -
28/10:30am 14.4 W 13 18 1032.7 - 0.0 - - 10 - - - -
28/10:00am 14.2 W 11 15 1032.7 - 0.0 - - 10 - - - -
28/09:30am 13.4 W 10 13 1032.5 - 0.0 - - 10 - - - -
28/09:00am 12.7 W 12 16 1032.2 - 0.0 - - 10 - - - -
28/08:30am 11.4 W 14 17 1031.9 - 0.0 - - 10 - - - -
28/08:00am 10.4 W 15 20 1031.6 - 0.0 - - 10 - - - -
28/07:30am 9.3 W 13 16 1031.3 - 0.0 - - 10 - - - -
28/07:00am 9.1 W 15 19 1031.0 - 0.0 - - 10 - - - -
28/06:30am 9.3 W 16 23 1030.7 - 0.0 - - 10 - - - -
28/06:00am 8.4 W 14 16 1030.4 - 0.0 - - 10 - - - -
28/05:30am 8.7 W 15 19 1030.1 - 0.0 - - 10 - - - -
28/05:00am 8.4 WNW 13 17 1029.7 - 0.0 - - 10 - - - -
28/04:30am 8.4 WNW 14 19 1029.4 - 0.0 - - 10 - - - -
28/04:00am 8.6 W 15 20 1029.2 - 0.0 - - 10 - - - -
28/03:30am 8.6 W 17 22 1028.9 - 0.0 - - 10 - - - -
28/03:00am 8.3 W 16 23 1028.9 - 0.0 - - 10 - - - -
28/02:30am 8.3 W 14 19 1029.1 - 0.0 - - 10 - - - -
28/02:00am 8.5 W 15 21 1029.0 - 0.0 - - 10 - - - -
28/01:30am 8.5 WNW 15 19 1028.7 - 0.0 - - 10 - - - -
28/01:00am 8.6 W 15 20 1028.4 - 0.0 - - 10 - - - -
28/12:30am 8.7 W 15 19 1028.2 - 0.0 - - 10 - - - -
28/12:00am 8.7 W 17 22 1028.3 - 0.0 - - 10 - - - -
 
Date/Time
EST
Temp

°C
Wind Pressure Rain
since 9am
mm
Weather Cloud Vis
km
Sea
Height
m
Swell
Dir
 
Speed
knots
Gust
knots
hPa Trend Height
m
Period
s
Dir
27/11:30pm 8.8 W 18 23 1028.4 - 0.0 - - 10 - - - -
27/11:00pm 8.5 W 16 20 1028.5 - 0.0 - - 10 - - - -
27/10:30pm 8.5 W 16 23 1028.4 - 0.0 - - 10 - - - -
27/10:00pm 8.6 W 16 24 1028.3 - 0.0 - - 10 - - - -
27/09:30pm 8.5 W 16 21 1028.1 - 0.0 - - 10 - - - -
27/09:00pm 8.6 W 15 19 1027.9 - 0.0 - - 10 - - - -
27/08:30pm 8.7 W 16 21 1027.8 - 0.0 - - 10 - - - -
27/08:00pm 9.3 WSW 19 25 1027.5 - 0.0 - - 10 - - - -
27/07:30pm 9.2 W 18 22 1027.3 - 0.0 - - 10 - - - -
27/07:00pm 9.5 W 18 22 1026.9 - 0.0 - - 10 - - - -
27/06:30pm 9.7 W 16 22 1026.6 - 0.0 - - 10 - - - -
27/06:00pm 10.1 W 12 18 1026.2 - 0.0 - - 10 - - - -
27/05:30pm 10.6 W 11 15 1025.7 - 0.0 - - 10 - - - -
27/05:00pm 11.2 W 13 17 1025.3 - 0.0 - - 10 - - - -
27/04:30pm 12.2 W 13 18 1024.8 - 0.0 - - 10 - - - -
27/04:00pm 13.0 W 15 20 1024.6 - 0.0 - - 10 - - - -
27/03:30pm 13.7 WSW 15 20 1024.5 - 0.0 - - 10 - - - -
27/03:00pm 13.8 W 16 22 1024.1 - 0.0 - - 10 - - - -
27/02:30pm 13.8 W 19 23 1023.8 - 0.0 - - 10 - - - -
27/02:00pm 13.9 W 17 23 1023.7 - 0.0 - - 10 - - - -
27/01:30pm 14.0 W 15 21 1023.6 - 0.0 - - 10 - - - -
27/01:00pm 14.2 WSW 15 20 1023.8 - 0.0 - - 10 - - - -
27/12:30pm 13.6 WSW 16 24 1024.1 - 0.0 - - 10 - - - -
27/12:00pm 13.3 W 16 21 1024.5 - 0.0 - - 10 - - - -
27/11:30am 13.2 W 14 20 1024.9 - 0.0 - - 10 - - - -
27/11:00am 12.5 W 15 21 1025.2 - 0.0 - - 10 - - - -
27/10:30am 11.8 W 16 22 1025.2 - 0.0 - - 10 - - - -
27/10:00am 11.3 W 15 24 1025.3 - 0.0 - - 10 - - - -
27/09:30am 10.8 WSW 16 27 1025.1 - 0.0 - - 10 - - - -
27/09:08am 10.3 WSW 15 27 1024.9 - 0.0 - - 10 - - - -
27/09:00am 10.2 W 14 19 1024.8 - 0.0 - - 10 - - - -
27/08:30am 9.4 W 15 23 1024.4 - 0.0 - - 10 - - - -
27/08:00am 8.9 W 20 27 1024.2 - 0.0 - - 10 - - - -
27/07:30am 8.6 WSW 21 31 1023.3 - 0.0 - - 10 - - - -
27/07:25am 8.4 WSW 19 31 1023.3 - 0.0 - - 10 - - - -
27/07:00am 8.2 W 17 23 1023.1 - 0.0 - - 10 - - - -
27/06:40am 8.3 W 21 34 1022.0 - 0.0 - - 10 - - - -
27/06:30am 8.1 W 22 30 1021.8 - 0.0 - - 10 - - - -
27/06:00am 8.2 W 20 31 1021.2 - 0.0 - - 10 - - - -
27/05:57am 8.1 W 19 29 1021.3 - 0.0 - - 10 - - - -
27/05:30am 8.4 W 21 30 1020.7 - 0.0 - - 10 - - - -
27/05:00am 8.2 W 22 34 1020.3 - 0.0 - - 10 - - - -
27/04:30am 8.6 W 25 35 1020.0 - 0.0 - - 10 - - - -
27/04:01am 8.8 WSW 24 34 1019.7 - 0.0 - - 10 - - - -
27/04:00am 8.8 WSW 25 34 1019.7 - 0.0 - - 10 - - - -
27/03:30am 9.0 WSW 27 39 1019.5 - 0.0 - - 10 - - - -
27/03:00am 8.7 WSW 23 35 1019.5 - 0.0 - - 10 - - - -
27/02:39am 8.9 WSW 21 31 1019.4 - 0.0 - - 10 - - - -
27/02:30am 8.8 WSW 21 30 1019.4 - 0.0 - - 10 - - - -
27/02:00am 9.1 WSW 23 33 1019.2 - 0.0 - - 10 - - - -

Other Formats:

Comma delimited format used in spreadsheet applications
http://www.bom.gov.au/fwo/IDN60701/IDN60701.95748.axf

JavaScript Object Notation format (JSON) in row-major order
http://www.bom.gov.au/fwo/IDN60701/IDN60701.95748.json